logo
Search for airport 
image banner adimage banner adimage banner ad
image banner ad

OEAH - Al Ahsa / Al Ahsa (Domestic)

Located in Al Ahsa, Saudi Arabia

ICAO - OEAH, IATA - HOF

Data provided by Airmate  

General information

Coordinates: N25°17'10" E49°29'10"
Elevation is 588 feet MSL.
 
View others Airports in Ash Sharqiyah

Operational data

Special qualification required
Current time UTC:
Current local time:
Weather
METAR: OEAH 202300Z 00000KT CAVOK 24/09 Q1007 NOSIG
TAF: TAF OEAH 202200Z 2100/2206 12012KT CAVOK PROB30 TEMPO 2106/2114 VRB22KT 5000 TSRA FEW030CB SCT040 BECMG 2112/2114 18008KT
View NOTAMs / SUP AIP / TFR affecting this airport [VIEW]
Communications frequencies: [VIEW]

Runways:

RWY identifierQFULength (ft)Width (ft)SurfaceLDA (ft)
16165°10039148ASP
34345°10039148ASP

Airport contact information

Address: Al Ahsa Saudi Arabia

Satellite view of OEAH